カシュガル の空港の天気 - METARとTAF

カシュガル空港 ( ZWSH / KHG ) - 中華人民共和国 新疆ウイグル自治区カシュガル市
飛行場実況気象(Metar)
観測時間01/21 01:00 CST (01/20 17:00 UTC)
風向・風速北西 3m/s
視程7000m
天気現象
-
気温-11℃
湿度79%
気圧1029hPa
METARZWSH 201700Z AUTO 32003MPS 7000 M11/M14 Q1029
過去の天気等 Google飛行場航空写真 Wunderground天気予報

過去48時間のMETAR

飛行場予報(TAF)
発表時間: 1/20 23:13 CST (1/20 15:13 UTC)
予報対象時間: 21日2時 CST ~ 22日2時 CST
風向・風速北北西 4m/s
視程5,000m
天気現象
なし
21日8時 CST ~ 21日9時 CST に徐々に
風向・風速北北東 4m/s
視程6,000m
なし
TAF ZWSH 201513Z 2018/2118 33004MPS 5000 FU NSC TXM03/09Z TNM15/00Z
BECMG 2100/2101 03004MPS 6000 NSC